createdAt,value
2018-11-28T00:00:04.564Z,91.90
2018-11-28T00:02:39.597Z,91.80
2018-11-28T00:05:16.274Z,91.80
2018-11-28T00:07:50.480Z,92.00
2018-11-28T00:10:25.010Z,92.10
2018-11-28T00:12:59.527Z,91.80
2018-11-28T00:15:34.560Z,91.80
2018-11-28T00:18:09.596Z,91.80
2018-11-28T00:20:45.011Z,91.80
2018-11-28T00:23:20.484Z,91.90
2018-11-28T00:25:58.796Z,91.70
2018-11-28T00:28:29.317Z,91.80
2018-11-28T00:31:04.556Z,92.00
2018-11-28T00:33:39.386Z,92.00
2018-11-28T00:36:14.622Z,92.10
2018-11-28T00:38:50.474Z,92.10
2018-11-28T00:41:25.508Z,92.30
2018-11-28T00:43:59.517Z,92.10
2018-11-28T00:46:34.549Z,91.80
2018-11-28T00:49:09.584Z,91.80
2018-11-28T00:51:44.004Z,91.40
2018-11-28T00:54:18.636Z,91.20
2018-11-28T00:56:52.637Z,91.00
2018-11-28T00:59:26.644Z,90.60
2018-11-28T01:02:02.705Z,90.50
2018-11-28T01:04:37.529Z,90.70
2018-11-28T01:07:12.361Z,90.70
2018-11-28T01:09:46.786Z,90.70
2018-11-28T01:12:20.587Z,90.80
2018-11-28T01:14:54.597Z,90.90
2018-11-28T01:17:28.609Z,91.40
2018-11-28T01:20:03.637Z,91.50
2018-11-28T01:22:38.878Z,91.40
2018-11-28T01:25:14.527Z,91.40
2018-11-28T01:27:51.606Z,91.50
2018-11-28T01:30:28.483Z,91.70
2018-11-28T01:33:04.336Z,91.50
2018-11-28T01:35:38.347Z,91.40
2018-11-28T01:38:13.379Z,91.40
2018-11-28T01:40:48.617Z,91.60
2018-11-28T01:43:23.032Z,91.50
2018-11-28T01:45:57.658Z,91.50
2018-11-28T01:48:31.668Z,91.40
2018-11-28T01:51:05.676Z,91.30
2018-11-28T01:53:40.510Z,91.30
2018-11-28T01:56:13.697Z,91.30
2018-11-28T01:58:47.505Z,91.00
2018-11-28T02:01:22.537Z,91.10
2018-11-28T02:03:58.385Z,91.10
2018-11-28T02:06:33.626Z,91.20
2018-11-28T02:09:09.681Z,91.40
2018-11-28T02:11:43.694Z,91.40
2018-11-28T02:14:17.909Z,91.20
2018-11-28T02:16:54.371Z,91.20
2018-11-28T02:19:29.615Z,91.30
2018-11-28T02:22:04.648Z,91.40
2018-11-28T02:24:39.680Z,91.40
2018-11-28T02:27:13.689Z,91.70
2018-11-28T02:29:47.699Z,91.30
2018-11-28T02:32:23.551Z,91.20
2018-11-28T02:34:57.773Z,91.10
2018-11-28T02:37:31.571Z,91.20
2018-11-28T02:40:06.809Z,91.20
2018-11-28T02:42:41.638Z,90.80
2018-11-28T02:45:18.719Z,90.80
2018-11-28T02:47:53.343Z,90.60
2018-11-28T02:50:28.583Z,91.10
2018-11-28T02:53:03.408Z,91.20
2018-11-28T02:55:38.648Z,91.30
2018-11-28T02:58:13.682Z,91.50
2018-11-28T03:00:48.711Z,91.50
2018-11-28T03:03:22.727Z,91.60
2018-11-28T03:05:58.578Z,91.50
2018-11-28T03:08:34.635Z,91.70
2018-11-28T03:11:09.669Z,91.90
2018-11-28T03:13:44.707Z,91.70
2018-11-28T03:16:22.600Z,91.50
2018-11-28T03:18:57.635Z,92.30
2018-11-28T03:21:31.644Z,92.50
2018-11-28T03:24:05.652Z,92.00
2018-11-28T03:26:40.686Z,91.70
2018-11-28T03:29:14.697Z,91.70
2018-11-28T03:31:49.729Z,91.80
2018-11-28T03:34:24.969Z,92.10
2018-11-28T03:36:59.594Z,92.00
2018-11-28T03:39:34.629Z,92.40
2018-11-28T03:42:09.659Z,92.60
2018-11-28T03:44:44.691Z,92.30
2018-11-28T03:47:18.705Z,92.00
2018-11-28T03:49:52.713Z,91.80
2018-11-28T03:52:26.721Z,92.20
2018-11-28T03:55:00.731Z,92.30
2018-11-28T03:57:34.741Z,92.40
2018-11-28T04:00:10.592Z,92.10
2018-11-28T04:02:44.604Z,91.90
2018-11-28T04:05:19.434Z,91.90
2018-11-28T04:07:53.648Z,91.70
2018-11-28T04:10:27.662Z,91.70
2018-11-28T04:13:03.713Z,91.90
2018-11-28T04:15:37.724Z,91.60
2018-11-28T04:18:12.554Z,91.50
2018-11-28T04:20:47.790Z,91.50
2018-11-28T04:23:21.595Z,91.50
2018-11-28T04:25:56.629Z,91.50
2018-11-28T04:28:32.686Z,91.60
2018-11-28T04:31:07.716Z,91.50
2018-11-28T04:33:42.558Z,91.60
2018-11-28T04:36:15.944Z,91.70
2018-11-28T04:38:49.543Z,91.90
2018-11-28T04:41:25.600Z,92.10
2018-11-28T04:44:00.632Z,92.00
2018-11-28T04:46:35.667Z,92.10
2018-11-28T04:49:10.701Z,92.10
2018-11-28T04:51:46.551Z,92.10
2018-11-28T04:54:22.821Z,92.10
2018-11-28T04:56:56.617Z,91.80
2018-11-28T04:59:30.631Z,91.70
2018-11-28T05:02:06.236Z,91.60
2018-11-28T05:04:40.907Z,91.40
2018-11-28T05:07:36.835Z,91.20
2018-11-28T05:10:14.927Z,91.60
2018-11-28T05:12:50.795Z,91.40
2018-11-28T05:15:26.840Z,91.00
2018-11-28T05:18:01.877Z,90.90
2018-11-28T05:20:41.330Z,90.90
2018-11-28T05:23:15.833Z,90.90
2018-11-28T05:25:51.688Z,91.00
2018-11-28T05:28:26.925Z,90.90
2018-11-28T05:31:01.960Z,90.70
2018-11-28T05:33:37.196Z,90.80
2018-11-28T05:36:12.843Z,90.80
2018-11-28T05:38:48.900Z,90.90
2018-11-28T05:41:23.932Z,90.70
2018-11-28T05:44:00.813Z,90.60
2018-11-28T05:46:35.841Z,90.40
2018-11-28T05:49:15.116Z,90.60
2018-11-28T05:51:47.961Z,90.60
2018-11-28T05:54:22.348Z,90.60
2018-11-28T05:56:58.846Z,90.60
2018-11-28T05:59:34.904Z,90.60
2018-11-28T06:02:10.761Z,90.60
2018-11-28T06:04:46.815Z,90.30
2018-11-28T06:07:21.850Z,90.40
2018-11-28T06:27:13.782Z,90.60
2018-11-28T06:29:47.792Z,90.20
2018-11-28T06:32:23.849Z,90.40
2018-11-28T06:35:02.977Z,89.90
2018-11-28T06:55:11.912Z,90.60
2018-11-28T07:17:50.763Z,89.90
2018-11-28T07:20:27.399Z,90.10
2018-11-28T07:23:03.899Z,89.90
2018-11-28T07:43:11.192Z,91.00
2018-11-28T07:45:55.045Z,91.40
2018-11-28T08:08:40.027Z,90.20
2018-11-28T08:11:16.465Z,89.60
2018-11-28T08:13:56.033Z,89.70
2018-11-28T08:16:31.271Z,89.70
2018-11-28T08:36:27.109Z,89.20
2018-11-28T08:39:01.762Z,89.40
2018-11-28T08:58:54.070Z,89.70
2018-11-28T09:01:30.126Z,89.90
2018-11-28T09:04:04.135Z,89.50
2018-11-28T09:23:55.732Z,89.60
2018-11-28T09:26:41.344Z,89.90
2018-11-28T09:29:18.014Z,89.70
2018-11-28T09:31:59.596Z,89.90
2018-11-28T09:34:35.499Z,90.00
2018-11-28T09:54:27.390Z,87.10
2018-11-28T09:57:06.111Z,87.20
2018-11-28T10:17:05.423Z,85.70
2018-11-28T10:37:05.142Z,87.00
2018-11-28T10:39:39.145Z,87.30
2018-11-28T10:59:31.520Z,85.40
2018-11-28T11:02:11.232Z,85.80
2018-11-28T11:22:09.046Z,84.20
2018-11-28T11:42:09.030Z,83.80
2018-11-28T11:44:45.295Z,84.00
2018-11-28T11:47:20.532Z,84.40
2018-11-28T12:07:13.291Z,83.90
2018-11-28T12:29:50.293Z,83.90
2018-11-28T12:32:25.122Z,84.30
2018-11-28T12:34:58.311Z,83.10
2018-11-28T12:54:48.199Z,83.90
2018-11-28T12:57:22.616Z,83.90
2018-11-28T12:59:57.240Z,83.90
2018-11-28T13:02:32.683Z,83.90
2018-11-28T13:05:08.535Z,83.50
2018-11-28T13:25:05.591Z,83.60
2018-11-28T13:27:39.191Z,83.40
2018-11-28T13:30:18.317Z,84.00
2018-11-28T13:32:53.147Z,84.30
2018-11-28T13:35:33.096Z,84.50
2018-11-28T13:55:42.580Z,84.80
2018-11-28T13:58:19.318Z,85.40
2018-11-28T14:18:17.195Z,83.10
2018-11-28T14:20:54.270Z,83.60
2018-11-28T14:23:30.129Z,83.40
2018-11-28T14:43:28.208Z,84.40
2018-11-28T14:46:10.408Z,85.10
2018-11-28T15:06:06.449Z,84.60
2018-11-28T15:08:41.268Z,84.70
2018-11-28T15:11:18.348Z,84.30
2018-11-28T15:31:11.310Z,84.90
2018-11-28T15:33:49.413Z,85.20
2018-11-28T15:53:48.358Z,87.00
2018-11-28T15:56:29.975Z,87.10
2018-11-28T15:59:06.368Z,87.40
2018-11-28T16:01:45.291Z,87.70
2018-11-28T16:04:23.193Z,87.70
2018-11-28T16:06:59.250Z,87.60
2018-11-28T16:09:39.200Z,87.60
2018-11-28T16:12:15.462Z,88.00
2018-11-28T16:14:58.275Z,88.30
2018-11-28T16:17:35.360Z,88.40
2018-11-28T16:20:13.673Z,88.30
2018-11-28T16:22:50.342Z,88.60
2018-11-28T16:25:31.107Z,88.60
2018-11-28T16:28:06.349Z,88.50
2018-11-28T16:30:41.382Z,88.50
2018-11-28T16:33:18.052Z,88.70
2018-11-28T16:35:54.771Z,88.90
2018-11-28T16:38:30.371Z,88.90
2018-11-28T16:41:05.608Z,89.10
2018-11-28T16:43:45.564Z,89.20
2018-11-28T16:46:26.122Z,89.40
2018-11-28T16:49:01.361Z,89.60
2018-11-28T16:51:39.264Z,89.30
2018-11-28T16:54:13.291Z,89.30
2018-11-28T16:56:48.303Z,89.50
2018-11-28T16:59:32.553Z,89.50
2018-11-28T17:02:08.407Z,89.40
2018-11-28T17:04:44.261Z,89.40
2018-11-28T17:07:19.292Z,89.30
2018-11-28T17:09:57.196Z,89.30
2018-11-28T17:12:33.252Z,89.50
2018-11-28T17:15:10.333Z,89.50
2018-11-28T17:17:45.367Z,89.50
2018-11-28T17:20:26.336Z,89.50
2018-11-28T17:23:03.623Z,89.50
2018-11-28T17:25:37.224Z,89.30
2018-11-28T17:28:13.282Z,88.90
2018-11-28T17:30:51.833Z,88.80
2018-11-28T17:33:33.381Z,88.80
2018-11-28T17:36:12.756Z,89.00
2018-11-28T17:38:52.107Z,89.30
2018-11-28T17:41:30.158Z,89.40
2018-11-28T17:44:13.384Z,89.40
2018-11-28T17:46:55.398Z,89.60
2018-11-28T17:49:30.798Z,89.70
2018-11-28T17:52:06.269Z,89.60
2018-11-28T17:54:46.630Z,89.60
2018-11-28T17:57:22.272Z,89.50
2018-11-28T17:59:57.308Z,89.60
2018-11-28T18:02:32.341Z,89.70
2018-11-28T18:05:06.351Z,89.80
2018-11-28T18:07:41.382Z,89.90
2018-11-28T18:10:20.308Z,89.40
2018-11-28T18:13:12.479Z,88.80
2018-11-28T18:16:01.298Z,88.60
2018-11-28T18:18:36.336Z,88.70
2018-11-28T18:21:14.233Z,88.60
2018-11-28T18:23:49.268Z,88.80
2018-11-28T18:26:23.481Z,88.80
2018-11-28T18:28:58.309Z,88.80
2018-11-28T18:31:33.340Z,89.20
2018-11-28T18:34:08.374Z,89.30
2018-11-28T18:36:46.282Z,89.30
2018-11-28T18:39:21.310Z,89.20
2018-11-28T18:41:57.368Z,89.20
2018-11-28T18:44:32.402Z,89.20
2018-11-28T18:47:07.435Z,88.90
2018-11-28T18:49:48.209Z,88.90
2018-11-28T18:52:23.643Z,89.10
2018-11-28T18:55:00.320Z,88.80
2018-11-28T18:57:35.350Z,89.10
2018-11-28T19:00:12.432Z,89.30
2018-11-28T19:02:47.260Z,89.30
2018-11-28T19:05:23.527Z,89.40
2018-11-28T19:07:59.375Z,89.30
2018-11-28T19:10:34.417Z,89.40
2018-11-28T19:13:10.679Z,89.60
2018-11-28T19:15:46.319Z,89.30
2018-11-28T19:18:20.331Z,89.20
2018-11-28T19:20:54.337Z,89.20
2018-11-28T19:23:28.347Z,89.30
2018-11-28T19:26:03.381Z,89.30
2018-11-28T19:28:38.414Z,89.40
2018-11-28T19:31:14.881Z,89.20
2018-11-28T19:33:49.715Z,88.90
2018-11-28T19:36:25.360Z,88.60
2018-11-28T19:39:00.803Z,88.60
2018-11-28T19:41:35.221Z,88.60
2018-11-28T19:44:14.353Z,88.60
2018-11-28T19:46:54.504Z,88.70
2018-11-28T19:49:30.564Z,88.80
2018-11-28T19:52:08.466Z,88.90
2018-11-28T20:11:59.375Z,88.30
2018-11-28T20:14:35.432Z,88.60
2018-11-28T20:17:09.237Z,88.60
2018-11-28T20:37:03.629Z,89.30
2018-11-28T20:39:45.631Z,89.70
2018-11-28T20:59:38.412Z,90.20
2018-11-28T21:02:10.549Z,90.10
2018-11-28T21:04:44.556Z,90.40
2018-11-28T21:07:20.410Z,90.30
2018-11-28T21:09:56.471Z,90.40
2018-11-28T21:29:49.630Z,91.00
2018-11-28T21:32:23.848Z,90.50
2018-11-28T21:34:59.494Z,90.60
2018-11-28T21:37:36.573Z,90.50
2018-11-28T21:40:12.634Z,90.50
2018-11-28T22:00:06.616Z,90.50
2018-11-28T22:02:42.262Z,90.60
2018-11-28T22:05:18.525Z,90.60
2018-11-28T22:07:54.584Z,91.00
2018-11-28T22:10:33.509Z,90.60
2018-11-28T22:30:27.491Z,90.60
2018-11-28T22:33:03.551Z,90.30
2018-11-28T22:52:56.709Z,90.30
2018-11-28T22:55:30.928Z,90.40
2018-11-28T22:58:03.708Z,90.40
2018-11-28T23:17:55.649Z,90.30
2018-11-28T23:20:29.653Z,90.70
2018-11-28T23:44:21.612Z,91.40
2018-11-28T23:46:55.619Z,91.50
2018-11-28T23:49:30.125Z,91.30
2018-11-28T23:52:04.869Z,91.20
